createdAt,value
2022-08-14T00:01:28.371Z,15.21
2022-08-14T00:04:34.180Z,15.22
2022-08-14T00:07:21.669Z,15.24
2022-08-14T00:10:51.093Z,15.21
2022-08-14T00:13:18.999Z,15.17
2022-08-14T00:16:04.683Z,14.97
2022-08-14T00:19:06.578Z,14.94
2022-08-14T00:21:59.634Z,15.01
2022-08-14T00:24:45.739Z,14.98
2022-08-14T00:27:37.574Z,15.02
2022-08-14T00:30:25.705Z,15.06
2022-08-14T00:33:15.421Z,15.08
2022-08-14T00:36:36.112Z,15.06
2022-08-14T00:39:09.598Z,15.08
2022-08-14T00:41:55.466Z,15.11
2022-08-14T00:44:41.292Z,15.13
2022-08-14T00:47:28.510Z,15.15
2022-08-14T00:50:18.845Z,15.06
2022-08-14T00:53:10.591Z,15.01
2022-08-14T00:55:57.732Z,15.03
2022-08-14T00:58:45.416Z,14.98
2022-08-14T01:01:36.130Z,14.91
2022-08-14T01:04:37.783Z,14.82
2022-08-14T01:07:38.996Z,14.73
2022-08-14T01:10:53.512Z,14.71
2022-08-14T01:13:42.942Z,14.65
2022-08-14T01:16:31.475Z,14.59
2022-08-14T01:19:35.814Z,14.56
2022-08-14T01:22:26.940Z,14.55
2022-08-14T01:25:16.029Z,14.69
2022-08-14T01:28:01.902Z,14.69
2022-08-14T01:30:50.035Z,14.63
2022-08-14T01:33:59.608Z,14.57
2022-08-14T01:36:46.382Z,14.64
2022-08-14T01:39:32.353Z,14.67
2022-08-14T01:42:31.260Z,14.66
2022-08-14T01:45:25.473Z,14.57
2022-08-14T01:48:13.503Z,14.54
2022-08-14T01:51:03.308Z,14.53
2022-08-14T01:53:55.779Z,14.41
2022-08-14T01:56:44.922Z,14.28
2022-08-14T01:59:37.873Z,14.27
2022-08-14T02:02:23.874Z,14.18
2022-08-14T02:05:12.626Z,14.12
2022-08-14T02:08:09.077Z,14.11
2022-08-14T02:11:15.208Z,14.02
2022-08-14T02:14:07.926Z,13.95
2022-08-14T02:16:54.871Z,14.00
2022-08-14T02:19:40.482Z,13.95
2022-08-14T02:22:33.358Z,13.76
2022-08-14T02:25:20.242Z,13.67
2022-08-14T02:28:25.438Z,13.66
2022-08-14T02:31:14.948Z,13.71
2022-08-14T02:34:14.732Z,13.63
2022-08-14T02:37:10.968Z,13.65
2022-08-14T02:39:57.610Z,13.54
2022-08-14T02:42:54.111Z,13.46
2022-08-14T02:45:45.165Z,13.48
2022-08-14T02:49:01.666Z,13.41
2022-08-14T02:51:42.230Z,13.59
2022-08-14T02:54:28.462Z,13.58
2022-08-14T02:57:39.022Z,13.55
2022-08-14T03:00:21.713Z,13.54
2022-08-14T03:03:08.308Z,13.53
2022-08-14T03:05:54.285Z,13.43
2022-08-14T03:08:46.170Z,13.38
2022-08-14T03:11:34.651Z,13.36
2022-08-14T03:14:22.565Z,13.43
2022-08-14T03:17:10.438Z,13.57
2022-08-14T03:19:55.904Z,13.60
2022-08-14T03:22:42.120Z,13.83
2022-08-14T03:25:33.514Z,13.72
2022-08-14T03:28:32.845Z,13.65
2022-08-14T03:31:25.979Z,13.69
2022-08-14T03:34:24.650Z,13.56
2022-08-14T03:37:37.552Z,13.47
2022-08-14T03:40:25.352Z,13.48
2022-08-14T03:43:11.302Z,13.58
2022-08-14T03:45:56.743Z,13.75
2022-08-14T03:48:43.833Z,13.73
2022-08-14T03:51:29.193Z,13.69
2022-08-14T03:54:20.608Z,13.65
2022-08-14T03:57:06.525Z,13.62
2022-08-14T03:59:52.017Z,13.59
2022-08-14T04:02:47.180Z,13.50
2022-08-14T04:05:37.957Z,13.48
2022-08-14T04:08:31.681Z,13.55
2022-08-14T04:11:18.561Z,13.62
2022-08-14T04:14:06.053Z,13.66
2022-08-14T04:16:52.737Z,13.55
2022-08-14T04:19:39.156Z,13.50
2022-08-14T04:22:25.355Z,13.45
2022-08-14T04:25:10.839Z,13.37
2022-08-14T04:28:03.357Z,13.38
2022-08-14T04:30:49.197Z,13.30
2022-08-14T04:33:34.588Z,13.28
2022-08-14T04:36:20.498Z,13.27
2022-08-14T04:39:28.159Z,13.31
2022-08-14T04:42:32.859Z,13.26
2022-08-14T04:45:21.639Z,13.18
2022-08-14T04:48:39.792Z,13.11
2022-08-14T04:51:26.017Z,13.16
2022-08-14T04:54:11.855Z,13.18
2022-08-14T04:56:58.834Z,13.28
2022-08-14T04:59:44.448Z,13.22
2022-08-14T05:02:29.936Z,13.16
2022-08-14T05:05:21.170Z,13.23
2022-08-14T05:08:32.034Z,13.19
2022-08-14T05:11:20.016Z,13.17
2022-08-14T05:14:16.619Z,13.20
2022-08-14T05:17:12.225Z,13.29
2022-08-14T05:21:04.449Z,13.27
2022-08-14T05:23:03.925Z,13.27
2022-08-14T05:25:52.300Z,13.29
2022-08-14T05:28:38.245Z,13.32
2022-08-14T05:31:24.308Z,13.47
2022-08-14T05:34:31.997Z,13.45
2022-08-14T05:37:17.737Z,13.47
2022-08-14T05:40:03.436Z,13.43
2022-08-14T05:42:52.708Z,13.52
2022-08-14T05:45:38.539Z,13.60
2022-08-14T05:48:33.546Z,13.60
2022-08-14T05:51:22.046Z,13.61
2022-08-14T05:54:11.317Z,13.72
2022-08-14T05:56:59.374Z,13.82
2022-08-14T05:59:47.041Z,13.90
2022-08-14T06:02:33.252Z,14.02
2022-08-14T06:05:23.331Z,14.17
2022-08-14T06:08:31.469Z,14.37
2022-08-14T06:11:23.848Z,14.57
2022-08-14T06:14:21.379Z,14.80
2022-08-14T06:17:09.219Z,14.96
2022-08-14T06:20:01.079Z,15.18
2022-08-14T06:22:47.204Z,15.41
2022-08-14T06:25:35.179Z,15.69
2022-08-14T06:28:28.228Z,15.92
2022-08-14T06:31:13.994Z,16.15
2022-08-14T06:35:11.220Z,16.31
2022-08-14T06:37:05.984Z,16.47
2022-08-14T06:39:51.429Z,16.59
2022-08-14T06:42:38.780Z,16.72
2022-08-14T06:45:26.967Z,16.81
2022-08-14T06:48:21.773Z,16.96
2022-08-14T06:51:07.250Z,17.14
2022-08-14T06:53:52.623Z,17.25
2022-08-14T06:56:38.156Z,17.36
2022-08-14T06:59:23.965Z,17.47
2022-08-14T07:02:28.768Z,17.51
2022-08-14T07:05:33.581Z,17.56
2022-08-14T07:08:29.616Z,17.68
2022-08-14T07:11:17.064Z,17.80
2022-08-14T07:14:05.592Z,17.91
2022-08-14T07:16:54.976Z,18.03
2022-08-14T07:19:40.243Z,18.12
2022-08-14T07:22:32.847Z,18.15
2022-08-14T07:25:32.661Z,18.23
2022-08-14T07:28:20.436Z,18.30
2022-08-14T07:31:09.815Z,18.42
2022-08-14T07:33:55.332Z,18.51
2022-08-14T07:36:58.160Z,18.58
2022-08-14T07:39:47.175Z,18.64
2022-08-14T07:42:33.235Z,18.69
2022-08-14T07:45:18.955Z,18.70
2022-08-14T07:48:05.692Z,18.73
2022-08-14T07:51:03.049Z,18.69
2022-08-14T07:53:50.268Z,18.71
2022-08-14T07:56:44.434Z,18.75
2022-08-14T07:59:42.430Z,18.85
2022-08-14T08:02:33.426Z,18.91
2022-08-14T08:05:21.236Z,18.95
2022-08-14T08:08:26.466Z,19.02
2022-08-14T08:11:14.909Z,19.14
2022-08-14T08:14:04.599Z,19.28
2022-08-14T08:16:51.184Z,19.39
2022-08-14T08:19:39.705Z,19.41
2022-08-14T08:22:27.384Z,19.50
2022-08-14T08:25:13.915Z,19.55
2022-08-14T08:28:09.352Z,19.62
2022-08-14T08:31:08.393Z,19.66
2022-08-14T08:33:54.334Z,19.74
2022-08-14T08:36:41.922Z,19.77
2022-08-14T08:39:30.797Z,19.82
2022-08-14T08:42:38.612Z,19.87
2022-08-14T08:45:27.836Z,20.00
2022-08-14T08:48:20.601Z,20.10
2022-08-14T08:51:06.312Z,20.12
2022-08-14T08:54:18.274Z,20.22
2022-08-14T08:57:14.369Z,20.42
2022-08-14T09:00:25.196Z,20.51
2022-08-14T09:03:20.198Z,20.57
2022-08-14T09:06:53.744Z,20.79
2022-08-14T09:09:21.955Z,20.96
2022-08-14T09:12:13.898Z,20.94
2022-08-14T09:15:03.119Z,21.01
2022-08-14T09:17:48.390Z,21.10
2022-08-14T09:20:37.090Z,21.15
2022-08-14T09:23:27.427Z,21.20
2022-08-14T09:26:21.693Z,21.18
2022-08-14T09:29:09.803Z,21.14
2022-08-14T09:32:00.468Z,21.17
2022-08-14T09:35:09.666Z,21.22
2022-08-14T09:38:15.421Z,21.28
2022-08-14T09:42:21.219Z,21.41
2022-08-14T09:45:19.310Z,21.56
2022-08-14T09:48:21.110Z,21.67
2022-08-14T09:51:25.964Z,21.66
2022-08-14T09:54:23.230Z,21.67
2022-08-14T09:57:13.912Z,21.68
2022-08-14T10:00:25.981Z,21.67
2022-08-14T10:03:33.906Z,21.68
2022-08-14T10:06:23.537Z,21.74
2022-08-14T10:09:16.734Z,21.91
2022-08-14T10:12:04.402Z,22.10
2022-08-14T10:14:53.509Z,22.23
2022-08-14T10:17:39.711Z,22.41
2022-08-14T10:20:42.539Z,22.57
2022-08-14T10:23:52.533Z,22.70
2022-08-14T10:26:38.718Z,22.87
2022-08-14T10:29:37.883Z,22.90
2022-08-14T10:32:36.259Z,22.90
2022-08-14T10:35:31.658Z,23.01
2022-08-14T10:38:33.612Z,23.11
2022-08-14T10:41:19.570Z,23.15
2022-08-14T10:44:21.499Z,23.11
2022-08-14T10:47:40.604Z,23.13
2022-08-14T10:50:17.379Z,23.10
2022-08-14T10:53:07.989Z,23.09
2022-08-14T10:55:59.118Z,23.19
2022-08-14T10:58:44.774Z,23.28
2022-08-14T11:01:41.262Z,23.37
2022-08-14T11:04:30.812Z,23.31
2022-08-14T11:07:21.247Z,23.34
2022-08-14T11:10:13.604Z,23.40
2022-08-14T11:12:59.422Z,23.56
2022-08-14T11:15:46.380Z,23.75
2022-08-14T11:18:40.233Z,23.89
2022-08-14T11:21:30.338Z,23.98
2022-08-14T11:24:55.357Z,24.06
2022-08-14T11:27:33.380Z,24.13
2022-08-14T11:30:50.182Z,24.24
2022-08-14T11:33:32.744Z,24.49
2022-08-14T11:36:23.724Z,24.61
2022-08-14T11:39:33.782Z,24.86
2022-08-14T11:42:58.621Z,25.11
2022-08-14T11:45:37.026Z,25.30
2022-08-14T11:49:02.610Z,25.28
2022-08-14T11:51:31.055Z,25.39
2022-08-14T11:54:35.602Z,25.56
2022-08-14T11:57:22.784Z,25.78
2022-08-14T12:00:19.789Z,26.08
2022-08-14T12:03:06.067Z,26.48
2022-08-14T12:05:52.056Z,26.62
2022-08-14T12:08:38.905Z,26.60
2022-08-14T12:11:24.953Z,26.66
2022-08-14T12:14:13.326Z,26.64
2022-08-14T12:17:15.153Z,26.65
2022-08-14T12:20:10.242Z,26.33
2022-08-14T12:23:02.228Z,26.27
2022-08-14T12:26:39.225Z,25.99
2022-08-14T12:29:13.155Z,25.66
2022-08-14T12:32:08.889Z,25.48
2022-08-14T12:34:55.386Z,25.52
2022-08-14T12:37:51.659Z,25.70
2022-08-14T12:40:52.574Z,25.65
2022-08-14T12:44:01.970Z,25.59
2022-08-14T12:46:47.565Z,25.72
2022-08-14T12:49:34.844Z,25.69
2022-08-14T12:52:53.984Z,25.60
2022-08-14T12:56:22.512Z,25.61
2022-08-14T12:59:04.783Z,25.64
2022-08-14T13:02:01.897Z,25.49
2022-08-14T13:04:53.098Z,25.74
2022-08-14T13:07:41.282Z,26.03
2022-08-14T13:10:52.049Z,26.33
2022-08-14T13:13:44.614Z,26.25
2022-08-14T13:16:37.663Z,26.17
2022-08-14T13:19:26.775Z,26.33
2022-08-14T13:22:29.067Z,26.53
2022-08-14T13:25:21.918Z,26.94
2022-08-14T13:28:11.161Z,27.25
2022-08-14T13:31:01.011Z,27.12
2022-08-14T13:33:46.716Z,27.41
2022-08-14T13:36:51.923Z,27.53
2022-08-14T13:39:39.142Z,27.38
2022-08-14T13:42:30.535Z,27.12
2022-08-14T13:45:17.386Z,26.95
2022-08-14T13:48:05.636Z,27.08
2022-08-14T13:50:55.726Z,27.19
2022-08-14T13:54:08.354Z,27.68
2022-08-14T13:56:59.389Z,27.47
2022-08-14T13:59:49.465Z,27.27
2022-08-14T14:02:45.758Z,27.10
2022-08-14T14:05:52.497Z,27.33
2022-08-14T14:08:49.517Z,27.54
2022-08-14T14:11:36.501Z,27.48
2022-08-14T14:14:29.730Z,27.06
2022-08-14T14:17:31.663Z,26.77
2022-08-14T14:20:34.690Z,26.96
2022-08-14T14:23:23.577Z,26.98
2022-08-14T14:26:14.027Z,27.22
2022-08-14T14:29:01.790Z,27.63
2022-08-14T14:31:49.428Z,27.49
2022-08-14T14:34:37.818Z,27.37
2022-08-14T14:37:24.381Z,26.59
2022-08-14T14:40:54.069Z,26.62
2022-08-14T14:43:23.100Z,26.75
2022-08-14T14:46:09.775Z,26.56
2022-08-14T14:49:04.098Z,26.19
2022-08-14T14:51:51.498Z,26.23
2022-08-14T14:54:39.181Z,26.45
2022-08-14T14:57:34.988Z,26.58
2022-08-14T15:00:21.330Z,26.00
2022-08-14T15:03:07.558Z,25.53
2022-08-14T15:05:53.594Z,25.34
2022-08-14T15:08:55.785Z,24.89
2022-08-14T15:11:42.862Z,24.68
2022-08-14T15:14:55.853Z,24.82
2022-08-14T15:17:40.903Z,24.79
2022-08-14T15:20:30.256Z,24.44
2022-08-14T15:23:16.989Z,24.17
2022-08-14T15:26:08.913Z,23.75
2022-08-14T15:29:02.188Z,23.47
2022-08-14T15:31:50.101Z,23.26
2022-08-14T15:34:45.655Z,23.41
2022-08-14T15:37:42.233Z,23.37
2022-08-14T15:40:28.670Z,23.41
2022-08-14T15:43:14.752Z,23.15
2022-08-14T15:46:07.190Z,22.94
2022-08-14T15:48:52.892Z,22.79
2022-08-14T15:51:42.272Z,22.87
2022-08-14T15:54:31.440Z,23.00
2022-08-14T15:57:17.376Z,23.08
2022-08-14T16:00:43.340Z,23.04
2022-08-14T16:03:37.169Z,22.93
2022-08-14T16:06:30.380Z,22.87
2022-08-14T16:09:16.167Z,22.87
2022-08-14T16:12:05.026Z,22.84
2022-08-14T16:14:50.648Z,22.85
2022-08-14T16:20:47.325Z,23.13
2022-08-14T16:23:36.136Z,23.28
2022-08-14T16:26:29.876Z,23.32
2022-08-14T16:29:19.284Z,23.10
2022-08-14T16:32:32.463Z,23.07
2022-08-14T16:35:15.201Z,23.13
2022-08-14T16:38:19.197Z,23.13
2022-08-14T16:40:23.730Z,22.96
2022-08-14T16:41:23.358Z,23.08
2022-08-14T16:44:21.502Z,23.04
2022-08-14T16:47:17.498Z,23.02
2022-08-14T16:50:11.388Z,22.88
2022-08-14T16:53:00.860Z,22.84
2022-08-14T16:55:53.306Z,22.92
2022-08-14T16:58:42.226Z,23.04
2022-08-14T17:01:27.605Z,23.14
2022-08-14T17:04:25.368Z,23.18
2022-08-14T17:07:13.827Z,23.31
2022-08-14T17:10:09.557Z,23.45
2022-08-14T17:13:59.255Z,23.67
2022-08-14T17:16:37.421Z,23.64
2022-08-14T17:19:24.242Z,23.60
2022-08-14T17:22:12.138Z,23.49
2022-08-14T17:25:03.162Z,23.39
2022-08-14T17:28:52.161Z,23.33
2022-08-14T17:31:17.187Z,23.22
2022-08-14T17:34:03.039Z,23.12
2022-08-14T17:36:54.986Z,23.03
2022-08-14T17:39:40.894Z,22.93
2022-08-14T17:43:01.900Z,22.81
2022-08-14T17:45:50.027Z,22.58
2022-08-14T17:49:15.446Z,22.42
2022-08-14T17:52:07.678Z,22.16
2022-08-14T17:55:05.647Z,22.10
2022-08-14T17:57:54.741Z,22.00
2022-08-14T18:00:43.315Z,21.91
2022-08-14T18:03:51.052Z,21.80
2022-08-14T18:06:39.315Z,21.67
2022-08-14T18:09:57.219Z,21.49
2022-08-14T18:12:45.438Z,21.35
2022-08-14T18:15:36.995Z,21.21
2022-08-14T18:18:22.892Z,21.06
2022-08-14T18:21:42.449Z,20.89
2022-08-14T18:24:20.378Z,20.81
2022-08-14T18:27:22.741Z,20.73
2022-08-14T18:30:32.377Z,20.63
2022-08-14T18:33:22.681Z,20.54
2022-08-14T18:36:47.764Z,20.47
2022-08-14T18:39:26.767Z,20.37
2022-08-14T18:42:23.353Z,20.28
2022-08-14T18:45:12.624Z,20.23
2022-08-14T18:48:28.744Z,20.16
2022-08-14T18:51:46.048Z,20.06
2022-08-14T18:54:37.784Z,19.98
2022-08-14T18:57:23.490Z,19.88
2022-08-14T19:00:32.820Z,19.82
2022-08-14T19:03:18.814Z,19.78
2022-08-14T19:06:09.924Z,19.69
2022-08-14T19:08:55.319Z,19.67
2022-08-14T19:11:42.273Z,19.63
2022-08-14T19:14:46.234Z,19.60
2022-08-14T19:17:43.210Z,19.54
2022-08-14T19:21:01.007Z,19.46
2022-08-14T19:24:33.564Z,19.41
2022-08-14T19:27:23.579Z,19.33
2022-08-14T19:30:20.514Z,19.29
2022-08-14T19:33:56.005Z,19.24
2022-08-14T19:37:04.826Z,19.20
2022-08-14T19:39:55.184Z,19.15
2022-08-14T19:42:46.755Z,19.12
2022-08-14T19:45:33.831Z,19.07
2022-08-14T19:48:19.797Z,19.03
2022-08-14T19:51:07.357Z,19.02
2022-08-14T19:54:00.915Z,19.00
2022-08-14T19:56:46.795Z,18.97
2022-08-14T19:59:57.332Z,18.94
2022-08-14T20:02:50.303Z,18.90
2022-08-14T20:05:46.034Z,18.86
2022-08-14T20:10:58.392Z,18.80
2022-08-14T20:12:00.509Z,18.73
2022-08-14T20:14:51.679Z,18.69
2022-08-14T20:17:40.546Z,18.67
2022-08-14T20:20:31.706Z,18.65
2022-08-14T20:23:19.879Z,18.64
2022-08-14T20:26:31.750Z,18.63
2022-08-14T20:29:31.181Z,18.63
2022-08-14T20:32:32.486Z,18.62
2022-08-14T20:35:38.872Z,18.60
2022-08-14T20:38:31.406Z,18.58
2022-08-14T20:41:20.538Z,18.54
2022-08-14T20:44:28.718Z,18.53
2022-08-14T20:47:16.955Z,18.51
2022-08-14T20:50:21.273Z,18.50
2022-08-14T20:53:29.375Z,18.48
2022-08-14T20:56:28.025Z,18.45
2022-08-14T20:59:24.140Z,18.44
2022-08-14T21:02:38.470Z,18.40
2022-08-14T21:05:35.951Z,18.37
2022-08-14T21:08:26.121Z,18.38
2022-08-14T21:11:17.903Z,18.47
2022-08-14T21:14:24.815Z,18.52
2022-08-14T21:17:14.626Z,18.54
2022-08-14T21:20:25.784Z,18.54
2022-08-14T21:23:09.198Z,18.50
2022-08-14T21:25:55.045Z,18.49
2022-08-14T21:28:40.493Z,18.44
2022-08-14T21:31:32.099Z,18.43
2022-08-14T21:34:27.102Z,18.43
2022-08-14T21:37:16.519Z,18.45
2022-08-14T21:40:02.173Z,18.42
2022-08-14T21:43:14.933Z,18.36
2022-08-14T21:46:04.414Z,18.35
2022-08-14T21:48:49.735Z,18.34
2022-08-14T21:51:55.002Z,18.34
2022-08-14T21:54:49.423Z,18.33
2022-08-14T21:57:55.956Z,18.30
2022-08-14T22:00:46.541Z,18.29
2022-08-14T22:03:35.512Z,18.26
2022-08-14T22:06:28.941Z,18.21
2022-08-14T22:09:15.370Z,18.19
2022-08-14T22:12:09.642Z,18.20
2022-08-14T22:14:55.330Z,18.30
2022-08-14T22:17:44.108Z,18.34
2022-08-14T22:20:31.620Z,18.35
2022-08-14T22:23:17.147Z,18.34
2022-08-14T22:26:03.682Z,18.37
2022-08-14T22:28:49.217Z,18.38
2022-08-14T22:31:41.668Z,18.42
2022-08-14T22:34:29.593Z,18.45
2022-08-14T22:37:15.444Z,18.48
2022-08-14T22:40:46.743Z,18.51
2022-08-14T22:43:09.623Z,18.50
2022-08-14T22:45:56.686Z,18.48
2022-08-14T22:48:49.484Z,18.50
2022-08-14T22:51:40.488Z,18.53
2022-08-14T22:54:53.601Z,18.56
2022-08-14T22:57:37.168Z,18.57
2022-08-14T23:00:25.653Z,18.56
2022-08-14T23:03:17.184Z,18.56
2022-08-14T23:07:02.625Z,18.53
2022-08-14T23:09:35.348Z,18.50
2022-08-14T23:12:28.725Z,18.46
2022-08-14T23:15:18.314Z,18.44
2022-08-14T23:18:04.995Z,18.41
2022-08-14T23:20:53.179Z,18.40
2022-08-14T23:23:41.614Z,18.39
2022-08-14T23:26:49.022Z,18.36
2022-08-14T23:29:37.698Z,18.33
2022-08-14T23:32:25.188Z,18.30
2022-08-14T23:35:10.621Z,18.28
2022-08-14T23:37:59.264Z,18.22
2022-08-14T23:40:46.194Z,18.19
2022-08-14T23:43:31.990Z,18.15
2022-08-14T23:46:19.538Z,18.07
2022-08-14T23:49:05.626Z,17.97
2022-08-14T23:52:51.126Z,17.87
2022-08-14T23:54:56.467Z,17.79
2022-08-14T23:57:57.942Z,17.69
